sensor_id;sensor_type;location;lat;lon;timestamp;P1;durP1;ratioP1;P2;durP2;ratioP2
78542;SDS011;67836;52.430;14.446;2023-03-13T00:02:39;10.15;;;5.10;;
78542;SDS011;67836;52.430;14.446;2023-03-13T00:05:23;14.13;;;5.43;;
78542;SDS011;67836;52.430;14.446;2023-03-13T00:08:07;10.63;;;5.95;;
78542;SDS011;67836;52.430;14.446;2023-03-13T00:10:51;12.02;;;5.95;;
78542;SDS011;67836;52.430;14.446;2023-03-13T00:13:36;7.22;;;4.13;;
78542;SDS011;67836;52.430;14.446;2023-03-13T00:16:20;12.07;;;6.38;;
78542;SDS011;67836;52.430;14.446;2023-03-13T00:19:04;10.30;;;4.53;;
78542;SDS011;67836;52.430;14.446;2023-03-13T00:21:49;11.85;;;6.07;;
78542;SDS011;67836;52.430;14.446;2023-03-13T00:24:34;13.00;;;7.57;;
78542;SDS011;67836;52.430;14.446;2023-03-13T00:27:17;10.82;;;5.28;;
78542;SDS011;67836;52.430;14.446;2023-03-13T00:30:01;12.85;;;6.95;;
78542;SDS011;67836;52.430;14.446;2023-03-13T00:32:46;10.88;;;5.25;;
78542;SDS011;67836;52.430;14.446;2023-03-13T00:35:31;8.75;;;4.00;;
78542;SDS011;67836;52.430;14.446;2023-03-13T00:38:15;10.70;;;4.82;;
78542;SDS011;67836;52.430;14.446;2023-03-13T00:43:43;11.82;;;5.07;;
78542;SDS011;67836;52.430;14.446;2023-03-13T00:46:29;7.93;;;3.17;;
78542;SDS011;67836;52.430;14.446;2023-03-13T00:49:13;10.75;;;4.78;;
78542;SDS011;67836;52.430;14.446;2023-03-13T00:51:57;9.98;;;5.43;;
78542;SDS011;67836;52.430;14.446;2023-03-13T00:54:41;9.70;;;4.53;;
78542;SDS011;67836;52.430;14.446;2023-03-13T00:57:25;8.73;;;4.55;;
78542;SDS011;67836;52.430;14.446;2023-03-13T01:00:10;11.35;;;4.07;;
78542;SDS011;67836;52.430;14.446;2023-03-13T01:02:54;8.80;;;4.05;;
78542;SDS011;67836;52.430;14.446;2023-03-13T01:05:38;10.65;;;6.00;;
78542;SDS011;67836;52.430;14.446;2023-03-13T01:08:22;10.13;;;4.38;;
78542;SDS011;67836;52.430;14.446;2023-03-13T01:11:08;12.18;;;5.55;;
78542;SDS011;67836;52.430;14.446;2023-03-13T01:13:53;11.40;;;6.50;;
78542;SDS011;67836;52.430;14.446;2023-03-13T01:16:41;10.38;;;4.40;;
78542;SDS011;67836;52.430;14.446;2023-03-13T01:19:25;13.77;;;6.85;;
78542;SDS011;67836;52.430;14.446;2023-03-13T01:22:09;11.95;;;4.85;;
78542;SDS011;67836;52.430;14.446;2023-03-13T01:24:55;13.52;;;6.65;;
78542;SDS011;67836;52.430;14.446;2023-03-13T01:27:39;10.60;;;4.03;;
78542;SDS011;67836;52.430;14.446;2023-03-13T01:33:07;9.13;;;5.05;;
78542;SDS011;67836;52.430;14.446;2023-03-13T01:35:51;13.52;;;4.85;;
78542;SDS011;67836;52.430;14.446;2023-03-13T01:38:35;12.75;;;5.15;;
78542;SDS011;67836;52.430;14.446;2023-03-13T01:41:20;14.07;;;5.80;;
78542;SDS011;67836;52.430;14.446;2023-03-13T01:44:05;13.20;;;4.75;;
78542;SDS011;67836;52.430;14.446;2023-03-13T01:46:51;12.82;;;4.82;;
78542;SDS011;67836;52.430;14.446;2023-03-13T01:49:35;12.32;;;5.40;;
78542;SDS011;67836;52.430;14.446;2023-03-13T01:52:23;16.02;;;5.05;;
78542;SDS011;67836;52.430;14.446;2023-03-13T01:55:10;12.00;;;5.30;;
78542;SDS011;67836;52.430;14.446;2023-03-13T01:57:55;9.45;;;4.28;;
78542;SDS011;67836;52.430;14.446;2023-03-13T02:00:40;9.23;;;4.75;;
78542;SDS011;67836;52.430;14.446;2023-03-13T02:03:25;9.00;;;3.92;;
78542;SDS011;67836;52.430;14.446;2023-03-13T02:06:11;13.55;;;6.93;;
78542;SDS011;67836;52.430;14.446;2023-03-13T02:08:56;12.95;;;5.75;;
78542;SDS011;67836;52.430;14.446;2023-03-13T02:11:56;13.68;;;4.47;;
78542;SDS011;67836;52.430;14.446;2023-03-13T02:14:46;10.88;;;5.05;;
78542;SDS011;67836;52.430;14.446;2023-03-13T02:17:33;11.82;;;4.93;;
78542;SDS011;67836;52.430;14.446;2023-03-13T02:20:18;9.40;;;4.68;;
78542;SDS011;67836;52.430;14.446;2023-03-13T02:23:07;10.73;;;4.70;;
78542;SDS011;67836;52.430;14.446;2023-03-13T02:25:57;9.05;;;3.78;;
78542;SDS011;67836;52.430;14.446;2023-03-13T02:28:41;10.25;;;4.97;;
78542;SDS011;67836;52.430;14.446;2023-03-13T02:31:25;9.52;;;4.63;;
78542;SDS011;67836;52.430;14.446;2023-03-13T02:34:11;10.15;;;3.75;;
78542;SDS011;67836;52.430;14.446;2023-03-13T02:36:58;10.32;;;3.75;;
78542;SDS011;67836;52.430;14.446;2023-03-13T02:39:43;9.38;;;3.70;;
78542;SDS011;67836;52.430;14.446;2023-03-13T02:42:30;7.43;;;3.47;;
78542;SDS011;67836;52.430;14.446;2023-03-13T02:45:14;8.20;;;3.13;;
78542;SDS011;67836;52.430;14.446;2023-03-13T02:47:59;8.43;;;3.92;;
78542;SDS011;67836;52.430;14.446;2023-03-13T02:50:43;5.70;;;2.72;;
78542;SDS011;67836;52.430;14.446;2023-03-13T02:53:27;9.23;;;3.85;;
78542;SDS011;67836;52.430;14.446;2023-03-13T02:56:11;8.60;;;2.90;;
78542;SDS011;67836;52.430;14.446;2023-03-13T02:58:57;6.60;;;2.58;;
78542;SDS011;67836;52.430;14.446;2023-03-13T03:05:28;10.18;;;4.22;;
78542;SDS011;67836;52.430;14.446;2023-03-13T03:08:12;12.23;;;4.25;;
78542;SDS011;67836;52.430;14.446;2023-03-13T03:10:56;5.97;;;2.92;;
78542;SDS011;67836;52.430;14.446;2023-03-13T03:13:40;8.65;;;2.75;;
78542;SDS011;67836;52.430;14.446;2023-03-13T03:16:24;10.07;;;4.40;;
78542;SDS011;67836;52.430;14.446;2023-03-13T03:22:56;7.38;;;3.00;;
78542;SDS011;67836;52.430;14.446;2023-03-13T03:25:40;5.63;;;2.78;;
78542;SDS011;67836;52.430;14.446;2023-03-13T03:28:24;5.90;;;2.05;;
78542;SDS011;67836;52.430;14.446;2023-03-13T03:31:09;8.52;;;3.58;;
78542;SDS011;67836;52.430;14.446;2023-03-13T03:33:55;7.03;;;2.30;;
78542;SDS011;67836;52.430;14.446;2023-03-13T03:36:39;9.25;;;3.20;;
78542;SDS011;67836;52.430;14.446;2023-03-13T03:39:24;10.70;;;3.85;;
78542;SDS011;67836;52.430;14.446;2023-03-13T03:42:07;5.93;;;3.17;;
78542;SDS011;67836;52.430;14.446;2023-03-13T03:44:52;4.50;;;1.92;;
78542;SDS011;67836;52.430;14.446;2023-03-13T03:47:36;6.85;;;3.13;;
78542;SDS011;67836;52.430;14.446;2023-03-13T03:50:19;6.97;;;2.53;;
78542;SDS011;67836;52.430;14.446;2023-03-13T03:53:04;9.10;;;3.28;;
78542;SDS011;67836;52.430;14.446;2023-03-13T03:55:47;10.80;;;2.70;;
78542;SDS011;67836;52.430;14.446;2023-03-13T04:01:15;6.13;;;2.55;;
78542;SDS011;67836;52.430;14.446;2023-03-13T04:03:59;8.00;;;2.92;;
78542;SDS011;67836;52.430;14.446;2023-03-13T04:06:43;7.40;;;3.05;;
78542;SDS011;67836;52.430;14.446;2023-03-13T04:09:28;6.45;;;2.35;;
78542;SDS011;67836;52.430;14.446;2023-03-13T04:12:12;6.60;;;2.30;;
78542;SDS011;67836;52.430;14.446;2023-03-13T04:14:55;8.07;;;3.72;;
78542;SDS011;67836;52.430;14.446;2023-03-13T04:20:23;5.85;;;2.05;;
78542;SDS011;67836;52.430;14.446;2023-03-13T04:23:07;8.73;;;3.13;;
78542;SDS011;67836;52.430;14.446;2023-03-13T04:25:51;10.10;;;3.25;;
78542;SDS011;67836;52.430;14.446;2023-03-13T04:28:35;8.98;;;1.95;;
78542;SDS011;67836;52.430;14.446;2023-03-13T04:34:03;7.13;;;2.65;;
78542;SDS011;67836;52.430;14.446;2023-03-13T04:36:47;8.50;;;2.58;;
78542;SDS011;67836;52.430;14.446;2023-03-13T04:42:15;8.00;;;2.95;;
78542;SDS011;67836;52.430;14.446;2023-03-13T04:45:00;9.48;;;2.95;;
78542;SDS011;67836;52.430;14.446;2023-03-13T04:47:47;9.68;;;2.90;;
78542;SDS011;67836;52.430;14.446;2023-03-13T04:50:31;8.38;;;2.55;;
78542;SDS011;67836;52.430;14.446;2023-03-13T04:53:15;10.52;;;2.78;;
78542;SDS011;67836;52.430;14.446;2023-03-13T04:55:59;9.77;;;2.22;;
78542;SDS011;67836;52.430;14.446;2023-03-13T04:58:43;10.02;;;2.35;;
78542;SDS011;67836;52.430;14.446;2023-03-13T05:01:28;6.95;;;2.50;;
78542;SDS011;67836;52.430;14.446;2023-03-13T05:04:12;8.18;;;2.47;;
78542;SDS011;67836;52.430;14.446;2023-03-13T05:06:56;8.00;;;2.22;;
78542;SDS011;67836;52.430;14.446;2023-03-13T05:09:40;9.05;;;3.25;;
78542;SDS011;67836;52.430;14.446;2023-03-13T05:12:24;10.20;;;2.92;;
78542;SDS011;67836;52.430;14.446;2023-03-13T05:15:08;11.48;;;3.83;;
78542;SDS011;67836;52.430;14.446;2023-03-13T05:17:52;12.07;;;2.78;;
78542;SDS011;67836;52.430;14.446;2023-03-13T05:20:36;11.45;;;3.83;;
78542;SDS011;67836;52.430;14.446;2023-03-13T05:23:20;12.95;;;3.22;;
78542;SDS011;67836;52.430;14.446;2023-03-13T05:26:05;10.75;;;2.97;;
78542;SDS011;67836;52.430;14.446;2023-03-13T05:28:48;8.40;;;4.05;;
78542;SDS011;67836;52.430;14.446;2023-03-13T05:34:16;14.23;;;4.68;;
78542;SDS011;67836;52.430;14.446;2023-03-13T05:37:01;14.25;;;5.38;;
78542;SDS011;67836;52.430;14.446;2023-03-13T05:39:45;8.82;;;2.90;;
78542;SDS011;67836;52.430;14.446;2023-03-13T05:42:29;9.23;;;2.72;;
78542;SDS011;67836;52.430;14.446;2023-03-13T05:45:13;12.88;;;4.10;;
78542;SDS011;67836;52.430;14.446;2023-03-13T05:47:57;11.27;;;4.20;;
78542;SDS011;67836;52.430;14.446;2023-03-13T05:50:41;14.60;;;4.40;;
78542;SDS011;67836;52.430;14.446;2023-03-13T05:53:26;9.10;;;4.10;;
78542;SDS011;67836;52.430;14.446;2023-03-13T05:56:10;6.50;;;2.63;;
78542;SDS011;67836;52.430;14.446;2023-03-13T05:58:54;12.07;;;3.65;;
78542;SDS011;67836;52.430;14.446;2023-03-13T06:01:38;12.10;;;4.03;;
78542;SDS011;67836;52.430;14.446;2023-03-13T06:04:22;9.73;;;4.03;;
78542;SDS011;67836;52.430;14.446;2023-03-13T06:07:06;13.02;;;4.35;;
78542;SDS011;67836;52.430;14.446;2023-03-13T06:09:50;11.52;;;4.25;;
78542;SDS011;67836;52.430;14.446;2023-03-13T06:15:18;13.32;;;4.32;;
78542;SDS011;67836;52.430;14.446;2023-03-13T06:20:47;11.68;;;2.97;;
78542;SDS011;67836;52.430;14.446;2023-03-13T06:23:31;12.23;;;4.03;;
78542;SDS011;67836;52.430;14.446;2023-03-13T06:26:16;11.60;;;3.88;;
78542;SDS011;67836;52.430;14.446;2023-03-13T06:29:00;15.63;;;4.75;;
78542;SDS011;67836;52.430;14.446;2023-03-13T06:31:44;13.07;;;3.88;;
78542;SDS011;67836;52.430;14.446;2023-03-13T06:34:29;18.13;;;4.10;;
78542;SDS011;67836;52.430;14.446;2023-03-13T06:37:13;11.27;;;4.18;;
78542;SDS011;67836;52.430;14.446;2023-03-13T06:39:57;7.60;;;2.42;;
78542;SDS011;67836;52.430;14.446;2023-03-13T06:42:41;16.60;;;4.60;;
78542;SDS011;67836;52.430;14.446;2023-03-13T06:45:26;12.88;;;4.03;;
78542;SDS011;67836;52.430;14.446;2023-03-13T06:48:10;17.98;;;5.13;;
78542;SDS011;67836;52.430;14.446;2023-03-13T06:50:54;15.70;;;4.43;;
78542;SDS011;67836;52.430;14.446;2023-03-13T06:53:39;12.70;;;3.58;;
78542;SDS011;67836;52.430;14.446;2023-03-13T06:56:23;14.18;;;3.95;;
78542;SDS011;67836;52.430;14.446;2023-03-13T06:59:08;8.25;;;3.30;;
78542;SDS011;67836;52.430;14.446;2023-03-13T07:01:52;7.97;;;3.08;;
78542;SDS011;67836;52.430;14.446;2023-03-13T07:04:36;10.45;;;3.38;;
78542;SDS011;67836;52.430;14.446;2023-03-13T07:07:20;14.95;;;4.13;;
78542;SDS011;67836;52.430;14.446;2023-03-13T07:10:04;14.40;;;4.03;;
78542;SDS011;67836;52.430;14.446;2023-03-13T07:12:48;14.45;;;4.00;;
78542;SDS011;67836;52.430;14.446;2023-03-13T07:18:16;12.30;;;3.88;;
78542;SDS011;67836;52.430;14.446;2023-03-13T07:21:01;11.70;;;3.22;;
78542;SDS011;67836;52.430;14.446;2023-03-13T07:23:49;15.48;;;4.15;;
78542;SDS011;67836;52.430;14.446;2023-03-13T07:26:33;12.68;;;2.50;;
78542;SDS011;67836;52.430;14.446;2023-03-13T07:29:17;13.05;;;3.08;;
78542;SDS011;67836;52.430;14.446;2023-03-13T07:32:02;12.98;;;4.05;;
78542;SDS011;67836;52.430;14.446;2023-03-13T07:34:46;7.78;;;2.72;;
78542;SDS011;67836;52.430;14.446;2023-03-13T07:37:30;12.63;;;4.07;;
78542;SDS011;67836;52.430;14.446;2023-03-13T07:40:14;11.52;;;3.30;;
78542;SDS011;67836;52.430;14.446;2023-03-13T07:42:59;13.32;;;3.97;;
78542;SDS011;67836;52.430;14.446;2023-03-13T07:45:50;11.05;;;2.90;;
78542;SDS011;67836;52.430;14.446;2023-03-13T07:48:45;10.70;;;3.22;;
78542;SDS011;67836;52.430;14.446;2023-03-13T07:51:31;14.05;;;4.13;;
78542;SDS011;67836;52.430;14.446;2023-03-13T07:54:16;9.27;;;2.92;;
78542;SDS011;67836;52.430;14.446;2023-03-13T07:57:00;14.65;;;4.20;;
78542;SDS011;67836;52.430;14.446;2023-03-13T07:59:46;7.93;;;2.38;;
78542;SDS011;67836;52.430;14.446;2023-03-13T08:02:32;11.43;;;2.83;;
78542;SDS011;67836;52.430;14.446;2023-03-13T08:05:16;16.20;;;5.50;;
78542;SDS011;67836;52.430;14.446;2023-03-13T08:08:00;11.23;;;3.03;;
78542;SDS011;67836;52.430;14.446;2023-03-13T08:10:44;10.40;;;2.97;;
78542;SDS011;67836;52.430;14.446;2023-03-13T08:13:29;15.52;;;4.20;;
78542;SDS011;67836;52.430;14.446;2023-03-13T08:16:15;14.27;;;4.53;;
78542;SDS011;67836;52.430;14.446;2023-03-13T08:19:04;15.70;;;4.57;;
78542;SDS011;67836;52.430;14.446;2023-03-13T08:21:48;5.18;;;2.22;;
78542;SDS011;67836;52.430;14.446;2023-03-13T08:24:33;10.52;;;3.17;;
78542;SDS011;67836;52.430;14.446;2023-03-13T08:27:18;9.07;;;2.95;;
78542;SDS011;67836;52.430;14.446;2023-03-13T08:30:03;14.77;;;4.15;;
78542;SDS011;67836;52.430;14.446;2023-03-13T08:32:48;15.77;;;3.90;;
78542;SDS011;67836;52.430;14.446;2023-03-13T08:35:36;17.33;;;4.22;;
78542;SDS011;67836;52.430;14.446;2023-03-13T08:38:22;11.07;;;3.78;;
78542;SDS011;67836;52.430;14.446;2023-03-13T08:41:07;20.95;;;6.15;;
78542;SDS011;67836;52.430;14.446;2023-03-13T08:43:52;13.57;;;4.45;;
78542;SDS011;67836;52.430;14.446;2023-03-13T08:46:36;17.55;;;4.43;;
78542;SDS011;67836;52.430;14.446;2023-03-13T08:49:21;7.50;;;2.92;;
78542;SDS011;67836;52.430;14.446;2023-03-13T08:52:06;11.93;;;3.53;;
78542;SDS011;67836;52.430;14.446;2023-03-13T08:54:50;16.98;;;5.32;;
78542;SDS011;67836;52.430;14.446;2023-03-13T08:57:35;10.45;;;3.97;;
78542;SDS011;67836;52.430;14.446;2023-03-13T09:00:20;14.95;;;4.55;;
78542;SDS011;67836;52.430;14.446;2023-03-13T09:03:04;12.05;;;3.63;;
78542;SDS011;67836;52.430;14.446;2023-03-13T09:05:49;16.33;;;5.78;;
78542;SDS011;67836;52.430;14.446;2023-03-13T09:08:35;14.00;;;4.25;;
78542;SDS011;67836;52.430;14.446;2023-03-13T09:11:20;13.73;;;3.97;;
78542;SDS011;67836;52.430;14.446;2023-03-13T09:14:05;12.80;;;4.05;;
78542;SDS011;67836;52.430;14.446;2023-03-13T09:16:49;14.45;;;4.95;;
78542;SDS011;67836;52.430;14.446;2023-03-13T09:19:34;11.75;;;3.40;;
78542;SDS011;67836;52.430;14.446;2023-03-13T09:22:19;11.82;;;3.58;;
78542;SDS011;67836;52.430;14.446;2023-03-13T09:25:03;8.27;;;3.17;;
78542;SDS011;67836;52.430;14.446;2023-03-13T09:27:48;12.18;;;3.00;;
78542;SDS011;67836;52.430;14.446;2023-03-13T09:30:36;11.93;;;3.53;;
78542;SDS011;67836;52.430;14.446;2023-03-13T09:33:22;11.60;;;3.78;;
78542;SDS011;67836;52.430;14.446;2023-03-13T09:36:08;9.02;;;3.65;;
78542;SDS011;67836;52.430;14.446;2023-03-13T09:38:54;10.55;;;3.97;;
78542;SDS011;67836;52.430;14.446;2023-03-13T09:41:52;12.05;;;3.22;;
78542;SDS011;67836;52.430;14.446;2023-03-13T09:44:58;8.35;;;2.90;;
78542;SDS011;67836;52.430;14.446;2023-03-13T09:47:53;8.50;;;3.28;;
78542;SDS011;67836;52.430;14.446;2023-03-13T09:50:44;8.65;;;2.63;;
78542;SDS011;67836;52.430;14.446;2023-03-13T09:56:40;12.05;;;3.28;;
78542;SDS011;67836;52.430;14.446;2023-03-13T09:59:36;9.73;;;3.83;;
78542;SDS011;67836;52.430;14.446;2023-03-13T10:02:30;9.40;;;3.60;;
78542;SDS011;67836;52.430;14.446;2023-03-13T10:05:20;10.88;;;3.35;;
78542;SDS011;67836;52.430;14.446;2023-03-13T10:08:12;9.90;;;3.33;;
78542;SDS011;67836;52.430;14.446;2023-03-13T10:11:03;14.38;;;4.00;;
78542;SDS011;67836;52.430;14.446;2023-03-13T10:14:05;9.93;;;3.42;;
78542;SDS011;67836;52.430;14.446;2023-03-13T10:20:10;10.05;;;3.25;;
78542;SDS011;67836;52.430;14.446;2023-03-13T10:23:11;8.05;;;3.03;;
78542;SDS011;67836;52.430;14.446;2023-03-13T10:26:00;13.90;;;4.10;;
78542;SDS011;67836;52.430;14.446;2023-03-13T10:28:46;10.50;;;3.75;;
78542;SDS011;67836;52.430;14.446;2023-03-13T10:31:32;7.30;;;2.08;;
78542;SDS011;67836;52.430;14.446;2023-03-13T10:34:17;7.32;;;2.72;;
78542;SDS011;67836;52.430;14.446;2023-03-13T10:37:02;6.85;;;2.03;;
78542;SDS011;67836;52.430;14.446;2023-03-13T10:39:48;7.63;;;2.72;;
78542;SDS011;67836;52.430;14.446;2023-03-13T10:42:34;10.35;;;3.97;;
78542;SDS011;67836;52.430;14.446;2023-03-13T10:45:25;8.20;;;3.17;;
78542;SDS011;67836;52.430;14.446;2023-03-13T10:48:12;11.02;;;4.40;;
78542;SDS011;67836;52.430;14.446;2023-03-13T10:50:59;18.83;;;8.68;;
78542;SDS011;67836;52.430;14.446;2023-03-13T10:53:44;14.38;;;7.43;;
78542;SDS011;67836;52.430;14.446;2023-03-13T10:56:29;10.43;;;4.57;;
78542;SDS011;67836;52.430;14.446;2023-03-13T10:59:32;8.45;;;3.28;;
78542;SDS011;67836;52.430;14.446;2023-03-13T11:02:30;8.07;;;2.67;;
78542;SDS011;67836;52.430;14.446;2023-03-13T11:11:18;9.57;;;2.50;;
78542;SDS011;67836;52.430;14.446;2023-03-13T11:14:12;7.45;;;2.30;;
78542;SDS011;67836;52.430;14.446;2023-03-13T11:17:14;5.30;;;1.77;;
78542;SDS011;67836;52.430;14.446;2023-03-13T11:20:37;5.68;;;1.83;;
78542;SDS011;67836;52.430;14.446;2023-03-13T11:29:27;6.95;;;1.88;;
78542;SDS011;67836;52.430;14.446;2023-03-13T11:32:30;6.50;;;2.28;;
78542;SDS011;67836;52.430;14.446;2023-03-13T11:35:44;4.15;;;1.67;;
78542;SDS011;67836;52.430;14.446;2023-03-13T11:38:32;5.45;;;1.67;;
78542;SDS011;67836;52.430;14.446;2023-03-13T11:44:22;4.03;;;1.48;;
78542;SDS011;67836;52.430;14.446;2023-03-13T11:47:12;4.22;;;1.20;;
78542;SDS011;67836;52.430;14.446;2023-03-13T11:50:07;4.93;;;1.80;;
78542;SDS011;67836;52.430;14.446;2023-03-13T11:58:52;5.43;;;1.60;;
78542;SDS011;67836;52.430;14.446;2023-03-13T12:01:45;2.75;;;0.90;;
78542;SDS011;67836;52.430;14.446;2023-03-13T12:04:35;4.88;;;1.50;;
78542;SDS011;67836;52.430;14.446;2023-03-13T12:07:30;4.75;;;1.85;;
78542;SDS011;67836;52.430;14.446;2023-03-13T12:10:18;3.30;;;1.13;;
78542;SDS011;67836;52.430;14.446;2023-03-13T12:13:12;3.30;;;1.10;;
78542;SDS011;67836;52.430;14.446;2023-03-13T12:16:01;2.60;;;1.10;;
78542;SDS011;67836;52.430;14.446;2023-03-13T12:18:50;4.07;;;1.40;;
78542;SDS011;67836;52.430;14.446;2023-03-13T12:21:46;3.75;;;1.38;;
78542;SDS011;67836;52.430;14.446;2023-03-13T12:24:35;5.00;;;1.52;;
78542;SDS011;67836;52.430;14.446;2023-03-13T12:27:25;1.05;;;0.73;;
78542;SDS011;67836;52.430;14.446;2023-03-13T12:37:05;3.88;;;1.58;;
78542;SDS011;67836;52.430;14.446;2023-03-13T12:40:03;2.50;;;1.10;;
78542;SDS011;67836;52.430;14.446;2023-03-13T12:58:11;2.45;;;0.98;;
78542;SDS011;67836;52.430;14.446;2023-03-13T13:04:11;3.78;;;1.25;;
78542;SDS011;67836;52.430;14.446;2023-03-13T13:07:02;2.75;;;0.90;;
78542;SDS011;67836;52.430;14.446;2023-03-13T13:16:01;1.60;;;0.80;;
78542;SDS011;67836;52.430;14.446;2023-03-13T13:18:47;4.20;;;1.42;;
78542;SDS011;67836;52.430;14.446;2023-03-13T13:21:31;1.75;;;0.95;;
78542;SDS011;67836;52.430;14.446;2023-03-13T13:38:51;1.77;;;0.73;;
78542;SDS011;67836;52.430;14.446;2023-03-13T13:41:36;1.67;;;0.93;;
78542;SDS011;67836;52.430;14.446;2023-03-13T13:44:21;2.85;;;1.17;;
78542;SDS011;67836;52.430;14.446;2023-03-13T13:47:18;2.63;;;0.90;;
78542;SDS011;67836;52.430;14.446;2023-03-13T13:50:23;2.38;;;1.23;;
78542;SDS011;67836;52.430;14.446;2023-03-13T14:04:53;2.90;;;1.20;;
78542;SDS011;67836;52.430;14.446;2023-03-13T14:10:28;3.22;;;1.13;;
78542;SDS011;67836;52.430;14.446;2023-03-13T14:13:18;3.85;;;1.30;;
78542;SDS011;67836;52.430;14.446;2023-03-13T14:16:37;2.60;;;1.20;;
78542;SDS011;67836;52.430;14.446;2023-03-13T14:22:16;1.90;;;1.00;;
78542;SDS011;67836;52.430;14.446;2023-03-13T14:25:00;2.50;;;0.98;;
78542;SDS011;67836;52.430;14.446;2023-03-13T14:27:45;1.60;;;0.90;;
78542;SDS011;67836;52.430;14.446;2023-03-13T14:30:30;2.25;;;0.93;;
78542;SDS011;67836;52.430;14.446;2023-03-13T14:33:14;3.97;;;1.17;;
78542;SDS011;67836;52.430;14.446;2023-03-13T14:35:58;2.80;;;1.20;;
78542;SDS011;67836;52.430;14.446;2023-03-13T14:38:55;2.92;;;1.10;;
78542;SDS011;67836;52.430;14.446;2023-03-13T14:41:41;2.25;;;0.95;;
78542;SDS011;67836;52.430;14.446;2023-03-13T14:44:28;2.53;;;0.88;;
78542;SDS011;67836;52.430;14.446;2023-03-13T14:50:15;2.40;;;1.10;;
78542;SDS011;67836;52.430;14.446;2023-03-13T14:53:02;2.35;;;1.20;;
78542;SDS011;67836;52.430;14.446;2023-03-13T14:56:07;2.78;;;0.93;;
78542;SDS011;67836;52.430;14.446;2023-03-13T14:58:52;2.78;;;1.10;;
78542;SDS011;67836;52.430;14.446;2023-03-13T15:01:38;7.05;;;2.38;;
78542;SDS011;67836;52.430;14.446;2023-03-13T15:07:39;3.65;;;1.40;;
78542;SDS011;67836;52.430;14.446;2023-03-13T15:10:25;4.80;;;2.03;;
78542;SDS011;67836;52.430;14.446;2023-03-13T15:13:21;2.72;;;1.50;;
78542;SDS011;67836;52.430;14.446;2023-03-13T15:16:12;2.75;;;1.38;;
78542;SDS011;67836;52.430;14.446;2023-03-13T15:18:58;2.08;;;1.05;;
78542;SDS011;67836;52.430;14.446;2023-03-13T15:21:42;3.30;;;1.50;;
78542;SDS011;67836;52.430;14.446;2023-03-13T15:24:27;2.55;;;1.10;;
78542;SDS011;67836;52.430;14.446;2023-03-13T15:27:16;2.45;;;1.27;;
78542;SDS011;67836;52.430;14.446;2023-03-13T15:30:01;2.15;;;1.00;;
78542;SDS011;67836;52.430;14.446;2023-03-13T15:32:45;2.58;;;1.23;;
78542;SDS011;67836;52.430;14.446;2023-03-13T15:35:30;2.75;;;1.10;;
78542;SDS011;67836;52.430;14.446;2023-03-13T15:38:17;2.05;;;1.10;;
78542;SDS011;67836;52.430;14.446;2023-03-13T15:41:03;1.77;;;1.00;;
78542;SDS011;67836;52.430;14.446;2023-03-13T15:43:48;3.50;;;1.05;;
78542;SDS011;67836;52.430;14.446;2023-03-13T15:46:36;1.38;;;0.75;;
78542;SDS011;67836;52.430;14.446;2023-03-13T15:49:20;2.78;;;1.15;;
78542;SDS011;67836;52.430;14.446;2023-03-13T15:52:10;3.38;;;1.63;;
78542;SDS011;67836;52.430;14.446;2023-03-13T15:54:56;3.70;;;0.90;;
78542;SDS011;67836;52.430;14.446;2023-03-13T15:57:44;3.30;;;1.63;;
78542;SDS011;67836;52.430;14.446;2023-03-13T16:00:29;2.55;;;1.10;;
78542;SDS011;67836;52.430;14.446;2023-03-13T16:03:17;2.55;;;1.20;;
78542;SDS011;67836;52.430;14.446;2023-03-13T16:06:04;3.03;;;1.10;;
78542;SDS011;67836;52.430;14.446;2023-03-13T16:08:54;2.42;;;1.20;;
78542;SDS011;67836;52.430;14.446;2023-03-13T16:11:38;1.98;;;0.90;;
78542;SDS011;67836;52.430;14.446;2023-03-13T16:14:22;1.75;;;1.08;;
78542;SDS011;67836;52.430;14.446;2023-03-13T16:17:11;2.30;;;1.20;;
78542;SDS011;67836;52.430;14.446;2023-03-13T16:19:57;2.60;;;1.20;;
78542;SDS011;67836;52.430;14.446;2023-03-13T16:22:41;2.78;;;1.42;;
78542;SDS011;67836;52.430;14.446;2023-03-13T16:25:25;4.13;;;1.95;;
78542;SDS011;67836;52.430;14.446;2023-03-13T16:28:10;3.75;;;1.80;;
78542;SDS011;67836;52.430;14.446;2023-03-13T16:30:55;3.63;;;1.83;;
78542;SDS011;67836;52.430;14.446;2023-03-13T16:33:39;2.95;;;1.60;;
78542;SDS011;67836;52.430;14.446;2023-03-13T16:36:26;1.80;;;0.95;;
78542;SDS011;67836;52.430;14.446;2023-03-13T16:39:15;2.53;;;0.98;;
78542;SDS011;67836;52.430;14.446;2023-03-13T16:41:59;2.72;;;1.38;;
78542;SDS011;67836;52.430;14.446;2023-03-13T16:44:42;4.57;;;1.75;;
78542;SDS011;67836;52.430;14.446;2023-03-13T16:47:27;5.03;;;1.60;;
78542;SDS011;67836;52.430;14.446;2023-03-13T16:53:14;2.55;;;1.20;;
78542;SDS011;67836;52.430;14.446;2023-03-13T16:58:42;3.90;;;1.75;;
78542;SDS011;67836;52.430;14.446;2023-03-13T17:01:25;4.88;;;1.88;;
78542;SDS011;67836;52.430;14.446;2023-03-13T17:04:12;3.80;;;1.48;;
78542;SDS011;67836;52.430;14.446;2023-03-13T17:06:56;4.82;;;1.75;;
78542;SDS011;67836;52.430;14.446;2023-03-13T17:09:40;3.85;;;1.70;;
78542;SDS011;67836;52.430;14.446;2023-03-13T17:12:25;2.63;;;1.40;;
78542;SDS011;67836;52.430;14.446;2023-03-13T17:15:09;4.63;;;2.20;;
78542;SDS011;67836;52.430;14.446;2023-03-13T17:17:54;4.10;;;2.08;;
78542;SDS011;67836;52.430;14.446;2023-03-13T17:20:38;4.40;;;2.58;;
78542;SDS011;67836;52.430;14.446;2023-03-13T17:23:22;4.70;;;2.40;;
78542;SDS011;67836;52.430;14.446;2023-03-13T17:26:12;2.83;;;1.73;;
78542;SDS011;67836;52.430;14.446;2023-03-13T17:28:58;3.20;;;1.70;;
78542;SDS011;67836;52.430;14.446;2023-03-13T17:31:43;2.85;;;1.80;;
78542;SDS011;67836;52.430;14.446;2023-03-13T17:34:27;4.95;;;2.00;;
78542;SDS011;67836;52.430;14.446;2023-03-13T17:37:17;3.50;;;1.70;;
78542;SDS011;67836;52.430;14.446;2023-03-13T17:40:08;4.43;;;2.00;;
78542;SDS011;67836;52.430;14.446;2023-03-13T17:43:04;3.85;;;1.90;;
78542;SDS011;67836;52.430;14.446;2023-03-13T17:45:48;3.35;;;1.98;;
78542;SDS011;67836;52.430;14.446;2023-03-13T17:48:32;6.60;;;3.35;;
78542;SDS011;67836;52.430;14.446;2023-03-13T17:51:20;3.88;;;1.70;;
78542;SDS011;67836;52.430;14.446;2023-03-13T17:54:06;3.20;;;1.85;;
78542;SDS011;67836;52.430;14.446;2023-03-13T17:56:50;4.97;;;2.25;;
78542;SDS011;67836;52.430;14.446;2023-03-13T17:59:35;4.32;;;2.05;;
78542;SDS011;67836;52.430;14.446;2023-03-13T18:02:19;4.68;;;2.03;;
78542;SDS011;67836;52.430;14.446;2023-03-13T18:05:03;5.07;;;2.58;;
78542;SDS011;67836;52.430;14.446;2023-03-13T18:07:48;6.40;;;2.30;;
78542;SDS011;67836;52.430;14.446;2023-03-13T18:10:33;5.05;;;2.50;;
78542;SDS011;67836;52.430;14.446;2023-03-13T18:13:17;4.10;;;2.00;;
78542;SDS011;67836;52.430;14.446;2023-03-13T18:16:02;3.28;;;1.88;;
78542;SDS011;67836;52.430;14.446;2023-03-13T18:19:11;2.88;;;1.50;;
78542;SDS011;67836;52.430;14.446;2023-03-13T18:22:00;3.35;;;1.45;;
78542;SDS011;67836;52.430;14.446;2023-03-13T18:24:44;4.28;;;1.40;;
78542;SDS011;67836;52.430;14.446;2023-03-13T18:27:28;3.15;;;1.33;;
78542;SDS011;67836;52.430;14.446;2023-03-13T18:30:16;4.18;;;1.70;;
78542;SDS011;67836;52.430;14.446;2023-03-13T18:33:01;2.08;;;1.15;;
78542;SDS011;67836;52.430;14.446;2023-03-13T18:35:45;4.00;;;1.42;;
78542;SDS011;67836;52.430;14.446;2023-03-13T18:38:29;5.03;;;1.70;;
78542;SDS011;67836;52.430;14.446;2023-03-13T18:41:13;3.88;;;1.83;;